createdAt,value
2019-02-06T04:01:46.504Z,998.78
2019-02-06T04:02:46.823Z,998.78
2019-02-06T04:03:47.322Z,998.80
2019-02-06T04:04:47.526Z,998.78
2019-02-06T04:05:47.891Z,998.82
2019-02-06T04:06:55.098Z,998.82
2019-02-06T04:07:48.986Z,998.83
2019-02-06T04:08:47.831Z,998.80
2019-02-06T04:09:46.489Z,998.83
2019-02-06T04:10:46.209Z,998.82
2019-02-06T04:11:46.791Z,998.85
2019-02-06T04:12:47.083Z,998.86
2019-02-06T04:13:46.589Z,998.90
2019-02-06T04:14:47.248Z,998.89
2019-02-06T04:15:46.953Z,998.92
2019-02-06T04:16:49.250Z,998.91
2019-02-06T04:17:47.406Z,999.00
2019-02-06T04:18:47.488Z,998.95
2019-02-06T04:19:47.638Z,998.98
2019-02-06T04:20:47.784Z,999.00
2019-02-06T04:21:48.910Z,998.97
2019-02-06T04:22:48.120Z,998.96
2019-02-06T04:23:48.743Z,998.94
2019-02-06T04:24:51.526Z,998.89
2019-02-06T04:25:48.442Z,998.91
2019-02-06T04:26:48.580Z,998.95
2019-02-06T04:27:48.690Z,998.90
2019-02-06T04:28:49.022Z,998.91
2019-02-06T04:29:49.141Z,998.87
2019-02-06T04:30:49.298Z,998.87
2019-02-06T04:31:49.459Z,998.88
2019-02-06T04:32:49.584Z,998.88
2019-02-06T04:33:49.814Z,998.88
2019-02-06T04:34:49.894Z,998.84
2019-02-06T04:35:50.011Z,998.84
2019-02-06T04:36:50.206Z,998.79
2019-02-06T04:37:50.371Z,998.78
2019-02-06T04:38:50.663Z,998.82
2019-02-06T04:39:50.781Z,998.83
2019-02-06T04:40:50.897Z,998.79
2019-02-06T04:41:51.001Z,998.83
2019-02-06T04:42:51.203Z,998.83
2019-02-06T04:43:51.333Z,998.82
2019-02-06T04:44:51.539Z,998.83
2019-02-06T04:45:51.577Z,998.80
2019-02-06T04:46:51.896Z,998.80
2019-02-06T04:47:52.034Z,998.81
2019-02-06T04:48:52.277Z,998.88
2019-02-06T04:49:52.462Z,998.88
2019-02-06T04:50:52.650Z,998.85
2019-02-06T04:51:52.744Z,998.86
2019-02-06T04:52:53.032Z,998.86
2019-02-06T04:53:53.136Z,998.84
2019-02-06T04:54:53.425Z,998.84
2019-02-06T04:55:53.426Z,998.87
2019-02-06T04:56:53.746Z,998.86
2019-02-06T04:57:54.009Z,998.88
2019-02-06T04:58:54.008Z,998.85
2019-02-06T04:59:54.187Z,998.85
2019-02-06T05:00:54.328Z,998.82
2019-02-06T05:01:54.563Z,998.84
2019-02-06T05:02:54.730Z,998.80
2019-02-06T05:03:54.783Z,998.76
2019-02-06T05:04:55.064Z,998.77
2019-02-06T05:05:55.203Z,998.74
2019-02-06T05:06:55.369Z,998.71
2019-02-06T05:07:55.599Z,998.69
2019-02-06T05:08:55.649Z,998.66
2019-02-06T05:09:55.826Z,998.63
2019-02-06T05:10:55.942Z,998.63
2019-02-06T05:11:56.212Z,998.61
2019-02-06T05:12:56.340Z,998.60
2019-02-06T05:13:56.529Z,998.58
2019-02-06T05:14:56.717Z,998.58
2019-02-06T05:15:57.886Z,998.59
2019-02-06T05:16:57.108Z,998.58
2019-02-06T05:17:57.342Z,998.52
2019-02-06T05:18:57.391Z,998.49
2019-02-06T05:19:57.577Z,998.50
2019-02-06T05:20:57.816Z,998.52
2019-02-06T05:21:57.971Z,998.49
2019-02-06T05:22:58.215Z,998.50
2019-02-06T05:23:58.525Z,998.48
2019-02-06T05:24:58.562Z,998.47
2019-02-06T05:25:58.617Z,998.46
2019-02-06T05:26:59.042Z,998.49
2019-02-06T05:27:59.092Z,998.46
2019-02-06T05:28:59.199Z,998.45
2019-02-06T05:29:59.435Z,998.49
2019-02-06T05:30:59.495Z,998.43
2019-02-06T05:31:59.636Z,998.46
2019-02-06T05:32:59.845Z,998.40
2019-02-06T05:33:59.978Z,998.45
2019-02-06T05:35:00.012Z,998.49
2019-02-06T05:36:00.358Z,998.41
2019-02-06T05:37:00.611Z,998.42
2019-02-06T05:38:00.716Z,998.39
2019-02-06T05:39:00.958Z,998.42
2019-02-06T05:40:01.105Z,998.43
2019-02-06T05:41:01.304Z,998.43
2019-02-06T05:42:01.407Z,998.47
2019-02-06T05:43:01.739Z,998.42
2019-02-06T05:44:01.762Z,998.46
2019-02-06T05:45:02.603Z,998.43
2019-02-06T05:46:02.607Z,998.48
2019-02-06T05:47:02.810Z,998.46
2019-02-06T05:48:02.810Z,998.44
2019-02-06T05:49:02.831Z,998.45
2019-02-06T05:50:03.216Z,998.43
2019-02-06T05:51:03.286Z,998.46
2019-02-06T05:52:03.324Z,998.53
2019-02-06T05:53:03.520Z,998.49
2019-02-06T05:54:03.902Z,998.46
2019-02-06T05:55:04.657Z,998.51
2019-02-06T05:56:04.165Z,998.54
2019-02-06T05:57:04.874Z,998.45
2019-02-06T05:58:04.443Z,998.43
2019-02-06T05:59:04.848Z,998.44
2019-02-06T06:00:04.633Z,998.46
2019-02-06T06:01:05.065Z,998.44
2019-02-06T06:02:04.927Z,998.42
2019-02-06T06:03:05.044Z,998.43
2019-02-06T06:04:05.302Z,998.47
2019-02-06T06:05:05.366Z,998.47
2019-02-06T06:06:05.777Z,998.48
2019-02-06T06:07:14.800Z,998.51
2019-02-06T06:08:06.707Z,998.51
2019-02-06T06:09:06.075Z,998.53
2019-02-06T06:10:06.201Z,998.54
2019-02-06T06:11:17.591Z,998.56
2019-02-06T06:12:07.790Z,998.58
2019-02-06T06:13:07.713Z,998.58
2019-02-06T06:14:07.023Z,998.59
2019-02-06T06:15:07.091Z,998.57
2019-02-06T06:16:07.339Z,998.57
2019-02-06T06:17:07.428Z,998.55
2019-02-06T06:18:07.567Z,998.56
2019-02-06T06:19:08.267Z,998.57
2019-02-06T06:20:08.011Z,998.58
2019-02-06T06:21:08.989Z,998.58
2019-02-06T06:22:09.027Z,998.54
2019-02-06T06:23:09.005Z,998.55
2019-02-06T06:24:09.257Z,998.54
2019-02-06T06:25:08.910Z,998.56
2019-02-06T06:26:08.974Z,998.52
2019-02-06T06:27:09.132Z,998.54
2019-02-06T06:28:09.291Z,998.50
2019-02-06T06:29:09.492Z,998.52
2019-02-06T06:30:10.783Z,998.50
2019-02-06T06:31:10.875Z,998.56
2019-02-06T06:32:10.126Z,998.53
2019-02-06T06:33:13.056Z,998.49
2019-02-06T06:34:10.399Z,998.48
2019-02-06T06:35:10.402Z,998.47
2019-02-06T06:36:10.550Z,998.46
2019-02-06T06:37:10.737Z,998.46
2019-02-06T06:38:10.745Z,998.45
2019-02-06T06:39:10.875Z,998.43
2019-02-06T06:40:11.071Z,998.40
2019-02-06T06:41:11.242Z,998.43
2019-02-06T06:42:11.324Z,998.43
2019-02-06T06:43:11.515Z,998.38
2019-02-06T06:44:11.649Z,998.40
2019-02-06T06:45:11.851Z,998.43
2019-02-06T06:46:11.956Z,998.36
2019-02-06T06:47:12.149Z,998.38
2019-02-06T06:48:12.298Z,998.36
2019-02-06T06:49:12.472Z,998.32
2019-02-06T06:50:12.669Z,998.34
2019-02-06T06:51:12.738Z,998.33
2019-02-06T06:52:12.936Z,998.32
2019-02-06T06:53:13.119Z,998.37
2019-02-06T06:54:13.218Z,998.35
2019-02-06T06:55:13.362Z,998.33
2019-02-06T06:56:13.520Z,998.37
2019-02-06T06:57:13.736Z,998.36
2019-02-06T06:58:13.948Z,998.35
2019-02-06T06:59:14.001Z,998.33
2019-02-06T07:00:14.214Z,998.36
2019-02-06T07:01:14.406Z,998.35
2019-02-06T07:02:14.557Z,998.38
2019-02-06T07:03:15.270Z,998.34
2019-02-06T07:04:14.871Z,998.36
2019-02-06T07:05:15.392Z,998.39
2019-02-06T07:06:15.132Z,998.39
2019-02-06T07:07:15.257Z,998.39
2019-02-06T07:08:16.524Z,998.40
2019-02-06T07:09:15.579Z,998.39
2019-02-06T07:10:15.795Z,998.37
2019-02-06T07:11:16.631Z,998.40
2019-02-06T07:12:16.091Z,998.43
2019-02-06T07:13:16.245Z,998.44
2019-02-06T07:14:16.377Z,998.42
2019-02-06T07:15:16.648Z,998.40
2019-02-06T07:16:16.837Z,998.40
2019-02-06T07:17:16.915Z,998.44
2019-02-06T07:18:17.078Z,998.49
2019-02-06T07:19:17.301Z,998.47
2019-02-06T07:20:17.480Z,998.45
2019-02-06T07:21:17.538Z,998.49
2019-02-06T07:22:17.736Z,998.49
2019-02-06T07:23:17.849Z,998.47
2019-02-06T07:24:17.943Z,998.46
2019-02-06T07:25:18.092Z,998.45
2019-02-06T07:26:18.333Z,998.41
2019-02-06T07:27:21.014Z,998.48
2019-02-06T07:28:18.654Z,998.47
2019-02-06T07:29:18.758Z,998.47
2019-02-06T07:30:18.946Z,998.46
2019-02-06T07:31:19.114Z,998.46
2019-02-06T07:32:19.236Z,998.44
2019-02-06T07:33:19.437Z,998.43
2019-02-06T07:34:19.624Z,998.44
2019-02-06T07:35:19.730Z,998.42
2019-02-06T07:36:19.869Z,998.37
2019-02-06T07:37:20.117Z,998.42
2019-02-06T07:38:24.399Z,998.39
2019-02-06T07:39:20.379Z,998.37
2019-02-06T07:40:20.482Z,998.41
2019-02-06T07:41:20.603Z,998.42
2019-02-06T07:42:21.039Z,998.38
2019-02-06T07:43:21.651Z,998.35
2019-02-06T07:44:21.701Z,998.36
2019-02-06T07:45:21.427Z,998.38
2019-02-06T07:46:21.447Z,998.37
2019-02-06T07:47:21.667Z,998.32
2019-02-06T07:48:21.862Z,998.31
2019-02-06T07:49:21.923Z,998.34
2019-02-06T07:50:22.101Z,998.34
2019-02-06T07:51:22.232Z,998.37
2019-02-06T07:52:22.469Z,998.37
2019-02-06T07:53:22.550Z,998.36
2019-02-06T07:54:23.530Z,998.35
2019-02-06T07:55:22.856Z,998.32
2019-02-06T07:56:23.050Z,998.33
2019-02-06T07:57:23.245Z,998.36
2019-02-06T07:58:23.466Z,998.38
2019-02-06T07:59:23.442Z,998.35
2019-02-06T08:00:23.628Z,998.39
2019-02-06T08:01:23.713Z,998.40
2019-02-06T08:02:23.956Z,998.40
2019-02-06T08:03:24.076Z,998.42
2019-02-06T08:04:24.324Z,998.39
2019-02-06T08:05:24.475Z,998.38
2019-02-06T08:06:24.660Z,998.42
2019-02-06T08:07:24.822Z,998.37
2019-02-06T08:08:35.349Z,998.40
2019-02-06T08:09:25.639Z,998.41
2019-02-06T08:10:25.187Z,998.40
2019-02-06T08:11:25.473Z,998.41
2019-02-06T08:12:26.144Z,998.45
2019-02-06T08:13:25.761Z,998.46
2019-02-06T08:14:25.908Z,998.46
2019-02-06T08:15:26.098Z,998.49
2019-02-06T08:16:26.303Z,998.43
2019-02-06T08:17:26.435Z,998.47
2019-02-06T08:18:26.628Z,998.44
2019-02-06T08:19:26.706Z,998.48
2019-02-06T08:20:26.900Z,998.46
2019-02-06T08:21:27.124Z,998.47
2019-02-06T08:22:27.177Z,998.45
2019-02-06T08:23:27.435Z,998.56
2019-02-06T08:24:27.638Z,998.51
2019-02-06T08:25:27.743Z,998.53
2019-02-06T08:26:27.920Z,998.56
2019-02-06T08:27:28.027Z,998.57
2019-02-06T08:28:28.242Z,998.58
2019-02-06T08:29:28.396Z,998.55
2019-02-06T08:30:28.597Z,998.58
2019-02-06T08:31:28.621Z,998.55
2019-02-06T08:32:28.805Z,998.55
2019-02-06T08:33:28.936Z,998.48
2019-02-06T08:34:29.081Z,998.49
2019-02-06T08:35:29.300Z,998.54
2019-02-06T08:36:29.550Z,998.53
2019-02-06T08:37:29.600Z,998.56
2019-02-06T08:38:29.733Z,998.56
2019-02-06T08:39:29.984Z,998.58
2019-02-06T08:40:30.073Z,998.55
2019-02-06T08:41:30.242Z,998.56
2019-02-06T08:42:30.438Z,998.49
2019-02-06T08:43:30.609Z,998.52
2019-02-06T08:44:30.736Z,998.54
2019-02-06T08:45:30.870Z,998.50
2019-02-06T08:46:31.029Z,998.54
2019-02-06T08:47:31.233Z,998.55
2019-02-06T08:48:31.322Z,998.56
2019-02-06T08:49:31.524Z,998.61
2019-02-06T08:50:31.659Z,998.61
2019-02-06T08:51:31.822Z,998.62
2019-02-06T08:52:31.954Z,998.70
2019-02-06T08:53:32.093Z,998.75
2019-02-06T08:54:32.270Z,998.84
2019-02-06T08:55:32.424Z,998.93
2019-02-06T08:56:32.600Z,999.10
2019-02-06T08:57:32.747Z,999.10
2019-02-06T08:58:32.919Z,999.01
2019-02-06T08:59:36.045Z,998.90
2019-02-06T09:00:33.210Z,998.83
2019-02-06T09:01:33.436Z,998.80
2019-02-06T09:02:33.569Z,998.69
2019-02-06T09:03:33.687Z,998.69
2019-02-06T09:04:34.720Z,998.65
2019-02-06T09:05:34.052Z,998.60
2019-02-06T09:06:34.207Z,998.65
2019-02-06T09:07:34.308Z,998.59
2019-02-06T09:08:34.575Z,998.57
2019-02-06T09:09:34.708Z,998.60
2019-02-06T09:10:34.841Z,998.60
2019-02-06T09:11:34.993Z,998.59
2019-02-06T09:12:35.163Z,998.57
2019-02-06T09:13:35.287Z,998.58
2019-02-06T09:14:35.467Z,998.58
2019-02-06T09:15:35.673Z,998.55
2019-02-06T09:16:35.714Z,998.60
2019-02-06T09:17:35.906Z,998.57
2019-02-06T09:18:36.110Z,998.57
2019-02-06T09:19:36.232Z,998.64
2019-02-06T09:20:36.422Z,998.65
2019-02-06T09:21:36.633Z,998.67
2019-02-06T09:22:36.760Z,998.62
2019-02-06T09:23:36.921Z,998.59
2019-02-06T09:24:37.073Z,998.67
2019-02-06T09:25:37.150Z,998.65
2019-02-06T09:26:37.411Z,998.59
2019-02-06T09:27:37.581Z,998.63
2019-02-06T09:28:37.729Z,998.60
2019-02-06T09:29:37.838Z,998.67
2019-02-06T09:30:38.054Z,998.62
2019-02-06T09:31:38.188Z,998.62
2019-02-06T09:32:38.318Z,998.55
2019-02-06T09:33:38.468Z,998.58
2019-02-06T09:34:38.605Z,998.61
2019-02-06T09:35:38.787Z,998.63
2019-02-06T09:36:39.023Z,998.61
2019-02-06T09:37:39.206Z,998.61
2019-02-06T09:38:39.344Z,998.65
2019-02-06T09:39:39.481Z,998.65
2019-02-06T09:40:39.640Z,998.62
2019-02-06T09:41:39.799Z,998.63
2019-02-06T09:42:39.998Z,998.61
2019-02-06T09:43:40.173Z,998.64
2019-02-06T09:44:40.368Z,998.65
2019-02-06T09:45:40.477Z,998.62
2019-02-06T09:46:40.674Z,998.67
2019-02-06T09:47:40.769Z,998.68
2019-02-06T09:48:41.010Z,998.68
2019-02-06T09:49:41.758Z,998.72
2019-02-06T09:50:41.346Z,998.71
2019-02-06T09:51:41.516Z,998.78
2019-02-06T09:52:41.790Z,998.80
2019-02-06T09:53:41.922Z,998.98
2019-02-06T09:54:42.082Z,999.07
2019-02-06T09:55:42.285Z,999.04
2019-02-06T09:56:43.257Z,999.09
2019-02-06T09:57:42.532Z,999.13
2019-02-06T09:58:42.720Z,999.11
2019-02-06T09:59:42.914Z,999.12
2019-02-06T10:00:43.055Z,999.12
2019-02-06T10:01:43.239Z,999.15
2019-02-06T10:02:43.352Z,999.06
2019-02-06T10:03:43.583Z,998.99
2019-02-06T10:04:43.736Z,999.01
2019-02-06T10:05:43.911Z,999.06
2019-02-06T10:06:44.099Z,999.08
2019-02-06T10:07:46.082Z,999.03
2019-02-06T10:08:44.395Z,998.97
2019-02-06T10:09:44.562Z,998.79
2019-02-06T10:10:44.769Z,998.91
2019-02-06T10:11:44.963Z,998.99
2019-02-06T10:12:45.031Z,998.98
2019-02-06T10:13:45.222Z,998.93
2019-02-06T10:14:45.350Z,998.97
2019-02-06T10:15:45.628Z,999.01
2019-02-06T10:16:45.650Z,999.02
2019-02-06T10:17:45.864Z,998.89
2019-02-06T10:18:46.003Z,998.99
2019-02-06T10:19:46.155Z,999.04
2019-02-06T10:20:46.319Z,999.12
2019-02-06T10:21:46.452Z,999.18
2019-02-06T10:22:47.162Z,999.13
2019-02-06T10:23:46.767Z,999.18
2019-02-06T10:24:46.993Z,999.16
2019-02-06T10:25:47.145Z,999.16
2019-02-06T10:26:47.366Z,999.18
2019-02-06T10:27:47.527Z,999.21
2019-02-06T10:28:47.671Z,999.26
2019-02-06T10:29:47.909Z,999.28
2019-02-06T10:30:48.028Z,999.31
2019-02-06T10:31:48.186Z,999.30
2019-02-06T10:32:48.330Z,999.30
2019-02-06T10:33:48.571Z,999.21
2019-02-06T10:34:48.680Z,999.22
2019-02-06T10:35:51.796Z,999.27
2019-02-06T10:36:49.035Z,999.20
2019-02-06T10:37:49.189Z,999.21
2019-02-06T10:38:49.349Z,999.20
2019-02-06T10:39:49.493Z,999.13
2019-02-06T10:40:49.720Z,999.06
2019-02-06T10:41:49.894Z,999.01
2019-02-06T10:42:50.030Z,998.96
2019-02-06T10:43:50.219Z,998.93
2019-02-06T10:44:50.430Z,998.92
2019-02-06T10:45:50.570Z,998.87
2019-02-06T10:46:50.702Z,998.81
2019-02-06T10:47:50.908Z,998.80
2019-02-06T10:48:51.071Z,998.83
2019-02-06T10:49:51.294Z,998.80
2019-02-06T10:50:51.423Z,998.80
2019-02-06T10:51:51.622Z,998.80
2019-02-06T10:52:51.725Z,998.79
2019-02-06T10:53:51.907Z,998.72
2019-02-06T10:54:52.117Z,998.74
2019-02-06T10:55:52.225Z,998.65
2019-02-06T10:56:52.452Z,998.57
2019-02-06T10:57:52.678Z,998.52
2019-02-06T10:58:52.809Z,998.49
2019-02-06T10:59:52.966Z,998.45
2019-02-06T11:00:53.147Z,998.29
2019-02-06T11:01:53.287Z,998.27
2019-02-06T11:02:53.454Z,998.29
2019-02-06T11:03:53.599Z,998.23
2019-02-06T11:04:53.829Z,998.23
2019-02-06T11:05:53.913Z,998.22
2019-02-06T11:06:54.120Z,998.16
2019-02-06T11:07:54.305Z,998.18
2019-02-06T11:08:54.413Z,998.11
2019-02-06T11:09:54.548Z,998.11
2019-02-06T11:10:54.770Z,998.09
2019-02-06T11:11:54.881Z,998.05
2019-02-06T11:12:55.070Z,998.05
2019-02-06T11:13:55.264Z,997.88
2019-02-06T11:14:55.440Z,997.97
2019-02-06T11:15:55.653Z,997.98
2019-02-06T11:16:55.735Z,997.89
2019-02-06T11:17:55.897Z,997.89
2019-02-06T11:18:56.031Z,997.89
2019-02-06T11:19:56.230Z,997.86
2019-02-06T11:20:56.350Z,997.81
2019-02-06T11:21:56.513Z,997.71
2019-02-06T11:22:56.676Z,997.78
2019-02-06T11:23:56.856Z,997.74
2019-02-06T11:24:57.081Z,997.69
2019-02-06T11:25:57.186Z,997.66
2019-02-06T11:26:57.353Z,997.67
2019-02-06T11:27:57.546Z,997.60
2019-02-06T11:28:57.683Z,997.54
2019-02-06T11:29:57.884Z,997.58
2019-02-06T11:30:58.138Z,997.57
2019-02-06T11:31:58.250Z,997.55
2019-02-06T11:32:58.421Z,997.49
2019-02-06T11:33:58.580Z,997.45
2019-02-06T11:34:58.741Z,997.49
2019-02-06T11:35:58.857Z,997.55
2019-02-06T11:36:59.011Z,997.47
2019-02-06T11:37:59.227Z,997.52
2019-02-06T11:38:59.403Z,997.47
2019-02-06T11:39:59.593Z,997.49
2019-02-06T11:40:59.690Z,997.54
2019-02-06T11:41:59.862Z,997.59
2019-02-06T11:43:00.088Z,997.52
2019-02-06T11:44:00.280Z,997.59
2019-02-06T11:45:00.520Z,997.48
2019-02-06T11:46:00.600Z,997.47
2019-02-06T11:47:00.766Z,997.47
2019-02-06T11:48:00.902Z,997.47
2019-02-06T11:49:01.035Z,997.44
2019-02-06T11:50:01.173Z,997.45
2019-02-06T11:51:01.336Z,997.47
2019-02-06T11:52:01.566Z,997.41
2019-02-06T11:53:02.354Z,997.42
2019-02-06T11:54:01.889Z,997.40
2019-02-06T11:55:01.987Z,997.41
2019-02-06T11:56:02.224Z,997.39
2019-02-06T11:57:02.366Z,997.38
2019-02-06T11:58:02.487Z,997.34
2019-02-06T11:59:02.753Z,997.29
2019-02-06T12:00:02.936Z,997.29
2019-02-06T12:01:03.048Z,997.26
2019-02-06T12:02:03.285Z,997.29
2019-02-06T12:03:03.456Z,997.28
2019-02-06T12:04:03.649Z,997.31
2019-02-06T12:05:03.769Z,997.19
2019-02-06T12:06:03.881Z,997.23
2019-02-06T12:07:04.132Z,997.18
2019-02-06T12:08:04.234Z,997.22
2019-02-06T12:09:04.483Z,997.14
2019-02-06T12:10:09.816Z,997.17
2019-02-06T12:11:04.740Z,997.15
2019-02-06T12:12:04.951Z,997.16
2019-02-06T12:13:05.155Z,997.11
2019-02-06T12:14:05.287Z,997.14
2019-02-06T12:15:05.440Z,997.12
2019-02-06T12:16:05.523Z,997.10
2019-02-06T12:17:05.778Z,997.07
2019-02-06T12:18:06.005Z,997.13
2019-02-06T12:19:06.065Z,997.07
2019-02-06T12:20:06.255Z,997.10
2019-02-06T12:21:06.432Z,997.03
2019-02-06T12:22:06.643Z,997.04
2019-02-06T12:23:06.795Z,997.07
2019-02-06T12:24:06.957Z,997.04
2019-02-06T12:25:07.088Z,997.09
2019-02-06T12:26:07.328Z,997.01
2019-02-06T12:27:07.495Z,997.09
2019-02-06T12:28:07.688Z,997.01
2019-02-06T12:29:07.823Z,997.05
2019-02-06T12:30:08.001Z,997.05
2019-02-06T12:31:08.189Z,997.07
2019-02-06T12:32:08.303Z,997.02
2019-02-06T12:33:08.528Z,997.05
2019-02-06T12:34:08.687Z,997.08
2019-02-06T12:35:08.924Z,997.03
2019-02-06T12:36:09.017Z,997.04
2019-02-06T12:37:09.195Z,997.02
2019-02-06T12:38:09.335Z,996.99
2019-02-06T12:39:09.536Z,996.98
2019-02-06T12:40:20.773Z,996.96
2019-02-06T12:41:09.845Z,996.85
2019-02-06T12:42:10.037Z,996.97
2019-02-06T12:43:10.916Z,996.99
2019-02-06T12:44:10.448Z,996.86
2019-02-06T12:45:10.616Z,996.90
2019-02-06T12:46:10.741Z,996.85
2019-02-06T12:47:11.109Z,996.81
2019-02-06T12:48:12.390Z,996.80
2019-02-06T12:49:14.416Z,996.77
2019-02-06T12:50:11.494Z,996.86
2019-02-06T12:51:11.589Z,996.88
2019-02-06T12:52:11.809Z,996.79
2019-02-06T12:53:12.073Z,996.82
2019-02-06T12:54:12.291Z,996.73
2019-02-06T12:55:12.330Z,996.76
2019-02-06T12:56:12.521Z,996.82
2019-02-06T12:57:12.807Z,996.71
2019-02-06T12:58:13.023Z,996.72
2019-02-06T12:59:13.122Z,996.71
2019-02-06T13:00:13.294Z,996.65
2019-02-06T13:01:13.479Z,996.62
2019-02-06T13:02:13.621Z,996.68
2019-02-06T13:03:13.789Z,996.66
2019-02-06T13:04:14.026Z,996.70
2019-02-06T13:05:14.153Z,996.75
2019-02-06T13:06:14.359Z,996.76
2019-02-06T13:07:14.579Z,996.75
2019-02-06T13:08:17.234Z,996.79
2019-02-06T13:09:14.877Z,996.86
2019-02-06T13:10:14.967Z,996.85
2019-02-06T13:11:15.186Z,996.85
2019-02-06T13:12:15.418Z,996.85
2019-02-06T13:13:15.584Z,996.81
2019-02-06T13:14:15.727Z,996.83
2019-02-06T13:15:15.936Z,996.82
2019-02-06T13:16:16.144Z,996.83
2019-02-06T13:17:16.326Z,996.81
2019-02-06T13:18:16.502Z,996.76
2019-02-06T13:19:16.563Z,996.83
2019-02-06T13:20:16.841Z,996.66
2019-02-06T13:21:16.914Z,996.73
2019-02-06T13:22:17.078Z,996.53
2019-02-06T13:23:17.343Z,996.51
2019-02-06T13:24:17.545Z,996.46
2019-02-06T13:25:17.596Z,996.48
2019-02-06T13:26:17.827Z,996.51
2019-02-06T13:27:17.856Z,996.51
2019-02-06T13:28:18.079Z,996.49
2019-02-06T13:29:18.290Z,996.50
2019-02-06T13:30:18.486Z,996.51
2019-02-06T13:31:18.607Z,996.45
2019-02-06T13:32:18.746Z,996.47
2019-02-06T13:33:18.902Z,996.38
2019-02-06T13:34:19.202Z,996.38
2019-02-06T13:35:19.341Z,996.44
2019-02-06T13:36:19.459Z,996.42
2019-02-06T13:37:19.887Z,996.38
2019-02-06T13:38:22.932Z,996.37
2019-02-06T13:39:19.953Z,996.40
2019-02-06T13:40:20.166Z,996.37
2019-02-06T13:41:20.324Z,996.39
2019-02-06T13:42:20.482Z,996.32
2019-02-06T13:43:20.657Z,996.36
2019-02-06T13:44:20.913Z,996.37
2019-02-06T13:45:20.952Z,996.35
2019-02-06T13:46:21.223Z,996.39
2019-02-06T13:47:21.368Z,996.37
2019-02-06T13:48:21.580Z,996.35
2019-02-06T13:49:21.776Z,996.34
2019-02-06T13:50:22.847Z,996.30
2019-02-06T13:51:22.196Z,996.33
2019-02-06T13:52:22.345Z,996.24
2019-02-06T13:53:22.476Z,996.24
2019-02-06T13:54:22.646Z,996.21
2019-02-06T13:55:22.873Z,996.24
2019-02-06T13:56:23.101Z,996.16
2019-02-06T13:57:33.422Z,996.14
2019-02-06T13:58:23.831Z,996.20
2019-02-06T13:59:23.526Z,996.21
2019-02-06T14:00:23.717Z,996.14
2019-02-06T14:01:25.861Z,996.13
2019-02-06T14:02:24.146Z,996.12
2019-02-06T14:03:24.170Z,996.08
2019-02-06T14:04:24.326Z,996.13
2019-02-06T14:05:24.557Z,996.14
2019-02-06T14:06:25.314Z,996.10
2019-02-06T14:07:24.985Z,996.11
2019-02-06T14:08:25.185Z,996.05
2019-02-06T14:09:26.146Z,996.04
2019-02-06T14:10:25.475Z,996.06
2019-02-06T14:11:25.625Z,995.99
2019-02-06T14:12:25.790Z,995.97
2019-02-06T14:13:25.914Z,995.96
2019-02-06T14:14:27.009Z,995.90
2019-02-06T14:15:26.282Z,995.89
2019-02-06T14:16:27.134Z,995.84
2019-02-06T14:17:26.628Z,995.79
2019-02-06T14:18:26.808Z,995.79
2019-02-06T14:19:26.976Z,995.76
2019-02-06T14:20:27.190Z,995.73
2019-02-06T14:21:27.292Z,995.74
2019-02-06T14:22:27.420Z,995.74
2019-02-06T14:23:27.622Z,995.68
2019-02-06T14:24:27.789Z,995.75
2019-02-06T14:25:27.980Z,995.68
2019-02-06T14:26:28.208Z,995.68
2019-02-06T14:27:28.860Z,995.68
2019-02-06T14:28:28.515Z,995.70
2019-02-06T14:29:28.618Z,995.70
2019-02-06T14:30:28.774Z,995.69
2019-02-06T14:31:29.007Z,995.66
2019-02-06T14:32:29.132Z,995.65
2019-02-06T14:33:29.211Z,995.67
2019-02-06T14:34:29.496Z,995.64
2019-02-06T14:35:29.603Z,995.65
2019-02-06T14:36:30.227Z,995.65
2019-02-06T14:37:29.976Z,995.66
2019-02-06T14:38:30.103Z,995.61
2019-02-06T14:39:30.276Z,995.59
2019-02-06T14:40:30.437Z,995.61
2019-02-06T14:41:30.641Z,995.59
2019-02-06T14:42:30.765Z,995.62
2019-02-06T14:43:30.912Z,995.59
2019-02-06T14:44:31.093Z,995.60
2019-02-06T14:45:31.265Z,995.58
2019-02-06T14:46:31.419Z,995.56
2019-02-06T14:47:31.544Z,995.48
2019-02-06T14:48:31.788Z,995.48
2019-02-06T14:49:31.911Z,995.48
2019-02-06T14:50:32.065Z,995.43
2019-02-06T14:51:32.277Z,995.40
2019-02-06T14:52:32.468Z,995.34
2019-02-06T14:53:32.634Z,995.39
2019-02-06T14:54:32.786Z,995.41
2019-02-06T14:55:32.965Z,995.35
2019-02-06T14:56:33.065Z,995.36
2019-02-06T14:57:33.281Z,995.34
2019-02-06T14:58:33.477Z,995.33
2019-02-06T14:59:33.511Z,995.46
2019-02-06T15:00:33.803Z,995.41
2019-02-06T15:01:33.890Z,995.39
2019-02-06T15:02:34.031Z,995.36
2019-02-06T15:03:34.304Z,995.37
2019-02-06T15:04:34.381Z,995.36
2019-02-06T15:05:34.532Z,995.31
2019-02-06T15:06:34.741Z,995.32
2019-02-06T15:07:34.892Z,995.29
2019-02-06T15:08:35.909Z,995.32
2019-02-06T15:09:35.209Z,995.35
2019-02-06T15:10:35.360Z,995.25
2019-02-06T15:11:35.538Z,995.22
2019-02-06T15:12:35.683Z,995.24
2019-02-06T15:13:35.944Z,995.25
2019-02-06T15:14:36.049Z,995.25
2019-02-06T15:15:36.202Z,995.25
2019-02-06T15:16:36.857Z,995.25
2019-02-06T15:17:36.534Z,995.23
2019-02-06T15:18:36.710Z,995.23
2019-02-06T15:19:36.957Z,995.26
2019-02-06T15:20:37.008Z,995.25
2019-02-06T15:21:37.248Z,995.26
2019-02-06T15:22:37.400Z,995.23
2019-02-06T15:23:37.535Z,995.26
2019-02-06T15:24:37.705Z,995.21
2019-02-06T15:25:37.876Z,995.22
2019-02-06T15:26:38.070Z,995.16
2019-02-06T15:27:38.914Z,995.17
2019-02-06T15:28:38.299Z,995.19
2019-02-06T15:29:38.455Z,995.15
2019-02-06T15:30:38.598Z,995.15
2019-02-06T15:31:38.769Z,995.15
2019-02-06T15:32:38.933Z,995.13
2019-02-06T15:33:39.108Z,995.11
2019-02-06T15:34:39.260Z,995.10
2019-02-06T15:35:39.418Z,995.08
2019-02-06T15:36:39.668Z,995.08
2019-02-06T15:37:39.741Z,995.11
2019-02-06T15:38:39.895Z,995.11
2019-02-06T15:39:40.089Z,995.14
2019-02-06T15:40:40.207Z,995.11
2019-02-06T15:41:40.504Z,995.12
2019-02-06T15:42:43.348Z,995.09
2019-02-06T15:43:40.783Z,995.08
2019-02-06T15:44:40.940Z,995.04
2019-02-06T15:45:41.072Z,995.01
2019-02-06T15:46:41.228Z,995.03
2019-02-06T15:47:41.459Z,995.06
2019-02-06T15:48:41.669Z,995.00
2019-02-06T15:49:41.724Z,995.04
2019-02-06T15:50:42.079Z,995.01
2019-02-06T15:51:42.111Z,994.99
2019-02-06T15:52:42.297Z,994.98
2019-02-06T15:53:42.423Z,994.97
2019-02-06T15:54:42.569Z,994.94
2019-02-06T15:55:42.768Z,994.92
2019-02-06T15:56:42.898Z,994.89
2019-02-06T15:57:43.125Z,994.87
2019-02-06T15:58:43.149Z,994.86
2019-02-06T15:59:44.537Z,994.82
2019-02-06T16:00:43.594Z,994.83
2019-02-06T16:01:43.934Z,994.89
2019-02-06T16:02:43.980Z,994.86
2019-02-06T16:03:44.049Z,994.88
2019-02-06T16:04:44.206Z,994.85
2019-02-06T16:05:44.662Z,994.92
2019-02-06T16:06:44.722Z,994.90
2019-02-06T16:07:44.833Z,994.91
2019-02-06T16:08:45.041Z,994.89
2019-02-06T16:09:45.184Z,994.91
2019-02-06T16:10:45.325Z,994.92
2019-02-06T16:11:45.417Z,994.91
2019-02-06T16:12:45.678Z,994.89
2019-02-06T16:13:45.753Z,994.90
2019-02-06T16:14:45.921Z,994.91
2019-02-06T16:15:46.065Z,994.89
2019-02-06T16:16:46.311Z,994.93
2019-02-06T16:17:46.462Z,994.93
2019-02-06T16:18:46.747Z,994.93
2019-02-06T16:19:46.920Z,994.93
2019-02-06T16:20:47.751Z,995.00
2019-02-06T16:21:53.220Z,994.99
2019-02-06T16:22:47.464Z,994.95
2019-02-06T16:23:47.553Z,994.97
2019-02-06T16:24:47.711Z,994.96
2019-02-06T16:25:47.853Z,994.90
2019-02-06T16:26:48.046Z,994.91
2019-02-06T16:27:48.943Z,994.89
2019-02-06T16:28:48.354Z,994.89
2019-02-06T16:29:59.893Z,994.94
2019-02-06T16:30:48.820Z,994.96
2019-02-06T16:31:48.978Z,994.94